Terminal Aerodrome Forecast
Issued by NWS

Home | Current Version | Previous Version | Text Only | Print | Product List | Glossary On
Versions: 1 2 3 4 5 6 7 8 9 10 11 12 13 14 15 16 17 18 19 20 21 22 23 24 25 26 27 28 29 30 31 32 33 34 35 36 37 38 39 40 41 42
000
FTUS44 KHGX 231230 AAA
TAFLBX
TAF AMD
KLBX 231230Z 2313/2412 VRB03KT 3SM BR SKC
      TEMPO 2313/2314 3/4SM BR BKN005
     FM231500 13008KT P6SM SCT020
     FM232100 14010KT P6SM SCT035
     FM240000 11004KT P6SM SCT250
     FM240900 VRB03KT 4SM BR SKC
      AMD NOT SKED=

USA.gov is the U.S. government's official web portal to all federal, state and local government web resources and services.